Time;durP1;ratioP1;P1;durP2;ratioP2;P2;SDS_P1;SDS_P2;PMS_P1;PMS_P2;Temp;Humidity;BMP_temperature;BMP_pressure;BME280_temperature;BME280_humidity;BME280_pressure;Samples;Min_cycle;Max_cycle;Signal;HPM_P1;HPM_P2
2021/01/26 00:00:21;;;;;;;21.12;12.93;;;;;;;0.59;82.87;99106.70;1737395;80;26402;-87
2021/01/26 00:02:48;;;;;;;;;;;;;;;0.59;82.88;99111.84;1770567;79;25753;-88
2021/01/26 00:05:15;;;;;;;21.02;13.72;;;;;;;0.58;82.89;99116.66;1777119;79;25580;-87
2021/01/26 00:07:41;;;;;;;24.98;13.93;;;;;;;0.57;83.08;99120.63;1779603;79;25798;-88
2021/01/26 00:10:11;;;;;;;23.98;14.68;;;;;;;0.55;83.09;99121.27;1777869;79;26095;-87
2021/01/26 00:12:37;;;;;;;23.65;14.58;;;;;;;0.54;83.16;99130.70;1779416;79;26170;-87
2021/01/26 00:15:06;;;;;;;27.65;14.75;;;;;;;0.52;83.21;99123.63;1780956;79;25764;-87
2021/01/26 00:17:32;;;;;;;26.33;16.40;;;;;;;0.50;83.36;99132.41;1782521;79;25618;-88
2021/01/26 00:19:58;;;;;;;26.48;16.00;;;;;;;0.51;83.48;99142.55;1780478;79;25516;-88
2021/01/26 00:22:25;;;;;;;25.12;14.00;;;;;;;0.50;83.61;99137.55;1780413;79;25593;-87
2021/01/26 00:24:51;;;;;;;27.10;17.25;;;;;;;0.50;83.71;99142.69;1778723;79;25810;-88
2021/01/26 00:27:17;;;;;;;30.85;16.52;;;;;;;0.49;83.77;99137.19;1779455;79;25962;-88
2021/01/26 00:29:43;;;;;;;28.67;15.68;;;;;;;0.50;83.86;99134.50;1779103;79;25714;-87
2021/01/26 00:32:10;;;;;;;24.40;15.48;;;;;;;0.52;83.92;99137.77;1779078;79;25829;-88
2021/01/26 00:34:36;;;;;;;24.40;16.52;;;;;;;0.52;83.98;99137.77;1780015;79;25939;-86
2021/01/26 00:37:02;;;;;;;26.85;17.20;;;;;;;0.52;84.08;99141.61;1779927;79;26554;-87
2021/01/26 00:39:28;;;;;;;26.07;16.45;;;;;;;0.51;84.05;99141.25;1758910;79;25902;-87
2021/01/26 00:41:55;;;;;;;22.65;15.25;;;;;;;0.50;84.10;99144.78;1778518;79;26353;-87
2021/01/26 00:44:22;;;;;;;24.50;16.05;;;;;;;0.49;84.23;99142.33;1780723;79;25706;-88
2021/01/26 00:46:48;;;;;;;24.70;16.65;;;;;;;0.49;84.25;99137.19;1778936;79;25934;-88
2021/01/26 00:49:14;;;;;;;24.70;14.90;;;;;;;0.49;84.33;99135.91;1740796;80;25785;-87
2021/01/26 00:51:40;;;;;;;27.15;16.97;;;;;;;0.49;84.35;99136.73;1743671;80;25874;-86
2021/01/26 00:54:08;;;;;;;27.17;16.40;;;;;;;0.50;84.39;99135.78;1757897;80;26517;-87
2021/01/26 00:56:35;;;;;;;28.87;15.98;;;;;;;0.50;84.41;99131.93;1713442;80;25839;-87
2021/01/26 00:59:02;;;;;;;27.30;13.32;;;;;;;0.50;84.36;99137.07;1715128;82;36978;-88
2021/01/26 01:01:29;;;;;;;28.98;17.15;;;;;;;0.49;84.42;99136.73;1713777;82;25667;-87
2021/01/26 01:03:56;;;;;;;26.02;15.95;;;;;;;0.50;84.39;99134.98;1717886;82;25791;-88
2021/01/26 01:06:22;;;;;;;30.12;18.00;;;;;;;0.51;84.31;99131.45;1691739;82;26668;-88
2021/01/26 01:08:49;;;;;;;28.20;16.17;;;;;;;0.48;84.20;99131.23;1713586;82;25772;-88
2021/01/26 01:11:15;;;;;;;27.52;16.62;;;;;;;0.48;84.32;99135.09;1694196;82;25999;-88
2021/01/26 01:13:41;;;;;;;20.20;12.93;;;;;;;0.50;84.38;99131.13;1712451;82;25832;-89
2021/01/26 01:16:07;;;;;;;23.98;14.63;;;;;;;0.56;84.24;99130.59;1711775;82;25852;-88
2021/01/26 01:18:34;;;;;;;26.85;14.43;;;;;;;0.53;84.02;99133.42;1711508;82;25946;-88
2021/01/26 01:21:00;;;;;;;24.07;13.75;;;;;;;0.53;84.08;99121.86;1716729;81;26166;-87
2021/01/26 01:23:26;;;;;;;28.32;14.87;;;;;;;0.53;83.87;99134.23;1739031;81;25310;-88
2021/01/26 01:26:01;;;;;;;25.85;15.48;;;;;;;0.53;83.90;99125.72;1705014;82;26473;-89
2021/01/26 01:28:27;;;;;;;22.32;13.50;;;;;;;0.51;83.79;99128.41;1704744;83;25644;-88
2021/01/26 01:30:56;;;;;;;22.90;13.05;;;;;;;0.50;83.79;99127.27;1706440;83;25980;-88
2021/01/26 01:33:24;;;;;;;24.07;15.00;;;;;;;0.49;83.80;99129.03;1704474;81;25756;-88
2021/01/26 01:35:51;;;;;;;25.25;15.43;;;;;;;0.48;83.72;99125.29;1703200;81;25823;-88
2021/01/26 01:38:18;;;;;;;27.13;17.25;;;;;;;0.50;83.82;99128.07;1700622;83;25725;-88
2021/01/26 01:40:45;;;;;;;28.83;15.83;;;;;;;0.50;83.78;99120.84;1695198;83;25669;-88
2021/01/26 01:43:11;;;;;;;25.70;14.70;;;;;;;0.50;83.79;99123.41;1677771;83;25899;-87
2021/01/26 01:45:37;;;;;;;26.27;15.45;;;;;;;0.50;83.73;99122.94;1707376;82;25772;-88
2021/01/26 01:48:15;;;;;;;26.37;16.10;;;;;;;0.47;83.72;99124.48;1707291;82;26566;-88
2021/01/26 01:50:52;;;;;;;27.02;17.00;;;;;;;0.49;83.84;99121.32;1707712;82;26117;-87
2021/01/26 01:53:27;;;;;;;32.95;17.25;;;;;;;0.49;83.79;99130.31;1706647;82;26385;-87
2021/01/26 01:55:59;;;;;;;25.50;16.25;;;;;;;0.47;83.88;99127.05;1705830;82;26777;-88
2021/01/26 01:58:33;;;;;;;26.65;16.80;;;;;;;0.47;83.87;99128.81;1706338;82;26393;-88
2021/01/26 02:01:04;;;;;;;28.42;16.55;;;;;;;0.45;83.97;99126.36;1708277;82;25868;-88
2021/01/26 02:03:34;;;;;;;27.42;17.40;;;;;;;0.47;84.08;99130.10;1710239;81;25824;-88
2021/01/26 02:06:01;;;;;;;26.17;16.05;;;;;;;0.47;84.04;99131.39;1730766;79;25860;-87
2021/01/26 02:08:45;;;;;;;29.55;18.15;;;;;;;0.45;84.12;99135.36;1730374;80;26323;-88
2021/01/26 02:11:11;;;;;;;26.75;16.73;;;;;;;0.43;84.18;99129.05;1727303;81;26654;-88
2021/01/26 02:13:38;;;;;;;33.40;18.95;;;;;;;0.44;84.27;99134.55;1726416;81;25854;-87
2021/01/26 02:16:05;;;;;;;27.15;16.23;;;;;;;0.43;84.33;99133.38;1752360;80;25862;-87
2021/01/26 02:19:10;;;;;;;25.97;15.93;;;;;;;0.43;84.40;99132.09;1755474;80;25797;-88
2021/01/26 02:22:24;;;;;;;26.10;17.00;;;;;;;0.41;84.42;99132.25;1751323;80;26601;-88
2021/01/26 02:25:35;;;;;;;26.95;17.17;;;;;;;0.43;84.50;99135.48;1713613;81;25408;-88
2021/01/26 02:28:57;;;;;;;30.97;17.82;;;;;;;0.46;84.57;99135.69;1708809;82;26761;-88
2021/01/26 02:31:54;;;;;;;28.60;18.07;;;;;;;0.44;84.57;99137.59;1707224;82;26134;-88
2021/01/26 02:34:46;;;;;;;26.90;17.17;;;;;;;0.44;84.61;99146.12;1702400;82;25663;-89
2021/01/26 02:37:41;;;;;;;25.80;17.23;;;;;;;0.47;84.64;99142.95;1667890;84;25924;-87
2021/01/26 02:40:22;;;;;;;29.02;18.17;;;;;;;0.47;84.69;99145.52;1634046;85;26125;-87
2021/01/26 02:42:59;;;;;;;29.95;17.77;;;;;;;0.48;84.67;99151.00;1646960;86;25837;-87
2021/01/26 02:45:41;;;;;;;30.02;19.48;;;;;;;0.45;84.69;99144.36;1648251;86;25876;-86
2021/01/26 02:48:37;;;;;;;26.93;16.67;;;;;;;0.44;84.72;99157.69;1645346;86;26078;-87
2021/01/26 02:51:33;;;;;;;28.83;18.48;;;;;;;0.45;84.90;99150.78;1647467;86;26433;-87
2021/01/26 02:54:14;;;;;;;30.32;18.35;;;;;;;0.44;84.90;99152.55;1648605;86;25947;-88
2021/01/26 02:57:16;;;;;;;31.75;19.65;;;;;;;0.44;84.90;99148.69;1629459;86;25897;-87
2021/01/26 03:00:03;;;;;;;26.87;17.37;;;;;;;0.45;84.94;99146.92;1618114;86;26400;-88
2021/01/26 03:02:36;;;;;;;26.07;16.67;;;;;;;0.44;85.04;99151.26;1622088;87;25743;-88
2021/01/26 03:05:14;;;;;;;29.65;19.40;;;;;;;0.46;85.12;99151.59;1620805;87;25843;-88
2021/01/26 03:07:52;;;;;;;27.37;17.82;;;;;;;0.46;85.03;99154.16;1617086;87;26639;-87
2021/01/26 03:10:22;;;;;;;29.55;17.40;;;;;;;0.45;85.10;99150.78;1606641;87;25914;-87
2021/01/26 03:13:02;;;;;;;31.35;19.25;;;;;;;0.43;85.12;99154.75;1613723;87;26403;-88
2021/01/26 03:15:33;;;;;;;32.88;19.73;;;;;;;0.44;85.17;99153.02;1659637;84;25870;-87
2021/01/26 03:18:04;;;;;;;30.75;19.80;;;;;;;0.42;85.24;99154.91;1699898;81;26468;-88
2021/01/26 03:20:53;;;;;;;27.22;18.92;;;;;;;0.41;85.19;99152.81;1710722;82;25548;-87
2021/01/26 03:23:31;;;;;;;29.98;18.98;;;;;;;0.43;85.24;99162.94;1734759;80;25881;-87
2021/01/26 03:25:57;;;;;;;28.80;17.95;;;;;;;0.46;85.25;99169.58;1759309;79;25889;-87
2021/01/26 03:28:26;;;;;;;31.57;19.55;;;;;;;0.42;85.34;99159.56;1778023;79;25790;-88
2021/01/26 03:30:58;;;;;;;28.55;18.32;;;;;;;0.42;85.29;99163.42;1768443;79;25931;-87
2021/01/26 03:33:37;;;;;;;32.30;20.17;;;;;;;0.42;85.35;99161.33;1769301;79;26357;-87
2021/01/26 03:36:05;;;;;;;27.80;17.93;;;;;;;0.43;85.36;99164.23;1762989;79;25896;-87
2021/01/26 03:38:33;;;;;;;29.23;18.23;;;;;;;0.44;85.37;99168.45;1767327;79;25877;-87
2021/01/26 03:41:03;;;;;;;27.48;18.27;;;;;;;0.45;85.37;99170.06;1770424;79;25838;-87
2021/01/26 03:43:30;;;;;;;;;;;;;;;0.45;85.33;99166.20;1772224;79;25880;-88
2021/01/26 03:46:05;;;;;;;30.92;18.27;;;;;;;0.46;85.34;99169.58;1761116;79;25853;-87
2021/01/26 03:48:42;;;;;;;26.52;17.73;;;;;;;0.45;85.29;99168.77;1731384;80;26383;-87
2021/01/26 03:51:26;;;;;;;29.55;18.35;;;;;;;0.45;85.29;99172.63;1725502;81;26316;-88
2021/01/26 03:54:31;;;;;;;26.73;17.37;;;;;;;0.46;85.32;99171.67;1726332;81;26046;-87
2021/01/26 03:57:22;;;;;;;25.75;16.45;;;;;;;0.47;85.32;99173.32;1743895;80;25808;-87
2021/01/26 04:00:28;;;;;;;32.93;19.52;;;;;;;0.45;85.26;99177.77;1726022;81;25390;-87
2021/01/26 04:03:35;;;;;;;34.53;19.25;;;;;;;0.47;85.26;99178.46;1725775;81;26397;-87
2021/01/26 04:06:35;;;;;;;27.10;18.25;;;;;;;0.50;85.27;99183.34;1750781;80;26078;-86
2021/01/26 04:09:05;;;;;;;;;;;;;;;0.50;85.21;99182.53;1747529;81;25817;-87
2021/01/26 04:11:57;;;;;;;26.52;17.73;;;;;;;0.47;85.21;99177.66;1737676;80;26733;-86
2021/01/26 04:14:31;;;;;;;34.88;20.90;;;;;;;0.45;85.34;99191.91;1731539;81;25830;-87
2021/01/26 04:17:20;;;;;;;30.85;19.80;;;;;;;0.43;85.34;99197.64;1754648;79;26573;-87
2021/01/26 04:20:04;;;;;;;35.20;20.17;;;;;;;0.42;85.33;99192.98;1760259;79;25753;-87
2021/01/26 04:22:31;;;;;;;26.33;16.05;;;;;;;0.43;85.37;99188.17;1761559;80;25364;-86
2021/01/26 04:24:57;;;;;;;25.10;17.05;;;;;;;0.46;85.38;99197.38;1760267;79;26452;-87
2021/01/26 04:27:25;;;;;;;25.72;17.77;;;;;;;0.44;85.29;99194.95;1762036;80;25787;-87
2021/01/26 04:29:52;;;;;;;24.63;16.37;;;;;;;0.43;85.30;99193.78;1759448;79;25873;-86
2021/01/26 04:32:23;;;;;;;23.65;14.75;;;;;;;0.44;85.32;99200.09;1752891;80;25963;-87
2021/01/26 04:34:49;;;;;;;;;;;;;;;0.43;85.28;99206.16;1736970;80;26400;-86
2021/01/26 04:37:16;;;;;;;26.73;17.70;;;;;;;0.43;85.30;99201.50;1737140;80;25630;-86
2021/01/26 04:39:42;;;;;;;23.85;15.43;;;;;;;0.42;85.31;99191.69;1736330;80;25786;-88
2021/01/26 04:42:20;;;;;;;22.52;15.20;;;;;;;0.42;85.28;99199.88;1745301;80;25816;-87
2021/01/26 04:44:57;;;;;;;27.67;17.90;;;;;;;0.42;85.23;99197.31;1730852;81;26619;-88
2021/01/26 04:47:35;;;;;;;23.55;15.23;;;;;;;0.41;85.23;99199.55;1735584;80;26341;-88
2021/01/26 04:50:36;;;;;;;25.77;17.10;;;;;;;0.43;85.28;99204.06;1723694;81;25794;-88
2021/01/26 04:53:35;;;;;;;26.62;15.03;;;;;;;0.42;85.23;99205.02;1667926;83;25880;-88
2021/01/26 04:56:40;;;;;;;21.42;14.13;;;;;;;0.42;85.18;99200.69;1592848;86;25889;-87
2021/01/26 04:59:33;;;;;;;26.10;17.52;;;;;;;0.41;85.10;99205.50;1638689;86;25854;-88
2021/01/26 05:02:40;;;;;;;26.60;16.52;;;;;;;0.40;85.06;99201.28;1637109;86;26369;-88
2021/01/26 05:05:13;;;;;;;25.35;17.17;;;;;;;0.37;85.02;99207.97;1654986;85;26112;-88
2021/01/26 05:07:53;;;;;;;21.93;15.45;;;;;;;0.35;85.07;99207.27;1642741;86;25952;-87
2021/01/26 05:10:39;;;;;;;26.45;16.65;;;;;;;0.35;85.10;99207.27;1642260;86;25916;-88
2021/01/26 05:13:25;;;;;;;24.50;16.10;;;;;;;0.37;85.21;99209.25;1641427;86;25983;-88
2021/01/26 05:16:26;;;;;;;25.23;15.78;;;;;;;0.37;85.02;99204.11;1639862;86;26368;-87
2021/01/26 05:19:01;;;;;;;25.95;15.72;;;;;;;0.36;85.01;99202.97;1650413;84;25849;-89
2021/01/26 05:21:52;;;;;;;23.32;16.10;;;;;;;0.36;84.99;99203.78;1671031;84;26619;-86
2021/01/26 05:24:41;;;;;;;22.80;15.58;;;;;;;0.36;84.99;99212.77;1697213;81;25887;-87
2021/01/26 05:27:08;;;;;;;21.75;14.38;;;;;;;0.35;84.92;99212.41;1716090;82;25974;-87
2021/01/26 05:29:36;;;;;;;25.60;16.20;;;;;;;0.34;84.98;99212.08;1716368;81;25937;-87
2021/01/26 05:32:06;;;;;;;25.57;15.53;;;;;;;0.33;84.98;99219.45;1716086;81;27159;-87
2021/01/26 05:34:35;;;;;;;26.42;17.48;;;;;;;0.32;85.00;99217.00;1768693;80;25807;-86
2021/01/26 05:37:07;;;;;;;26.90;17.60;;;;;;;0.33;85.03;99208.37;1731115;81;25858;-87
2021/01/26 05:39:41;;;;;;;28.55;18.57;;;;;;;0.33;85.01;99214.80;1754988;80;25857;-86
2021/01/26 05:42:08;;;;;;;25.00;17.77;;;;;;;0.33;85.05;99205.80;1756130;79;25966;-88
2021/01/26 05:44:36;;;;;;;25.95;17.05;;;;;;;0.33;84.95;99216.89;1728567;81;27123;-88
2021/01/26 05:47:32;;;;;;;24.35;16.48;;;;;;;0.35;84.97;99225.73;1732693;81;25674;-87
2021/01/26 05:49:59;;;;;;;24.27;15.98;;;;;;;0.35;84.78;99226.55;1720102;81;25737;-87
2021/01/26 05:52:40;;;;;;;31.48;17.77;;;;;;;0.33;84.71;99220.74;1722412;81;25771;-87
2021/01/26 05:55:23;;;;;;;24.05;15.30;;;;;;;0.32;84.77;99224.71;1722200;81;26533;-88
2021/01/26 05:57:50;;;;;;;27.42;16.25;;;;;;;0.32;84.73;99226.80;1722169;80;26599;-87
2021/01/26 06:00:27;;;;;;;22.90;14.60;;;;;;;0.30;84.68;99224.86;1727128;80;25943;-87
2021/01/26 06:03:21;;;;;;;22.98;15.88;;;;;;;0.30;84.74;99224.86;1751431;80;25790;-88
2021/01/26 06:06:16;;;;;;;25.27;15.48;;;;;;;0.31;84.83;99229.52;1755598;79;25635;-88
2021/01/26 06:08:56;;;;;;;31.48;16.23;;;;;;;0.32;84.80;99228.56;1756653;81;25780;-88
2021/01/26 06:11:30;;;;;;;26.50;18.05;;;;;;;0.32;84.82;99237.56;1734751;81;26633;-88
2021/01/26 06:14:15;;;;;;;28.47;18.48;;;;;;;0.30;84.86;99240.27;1757433;79;25857;-88
2021/01/26 06:16:42;;;;;;;24.43;15.50;;;;;;;0.30;84.90;99239.44;1757288;79;26442;-88
2021/01/26 06:19:12;;;;;;;25.15;15.83;;;;;;;0.31;84.93;99239.32;1735815;81;25751;-88
2021/01/26 06:21:49;;;;;;;25.37;16.05;;;;;;;0.33;84.90;99251.58;1758659;79;25773;-88
2021/01/26 06:24:19;;;;;;;21.65;13.83;;;;;;;0.31;84.85;99250.08;1757625;79;25926;-87
2021/01/26 06:27:07;;;;;;;29.23;15.68;;;;;;;0.30;84.89;99250.55;1758786;80;25887;-87
2021/01/26 06:29:58;;;;;;;25.52;15.05;;;;;;;0.30;84.95;99258.70;1700940;82;25998;-87
2021/01/26 06:33:15;;;;;;;22.58;13.90;;;;;;;0.30;84.97;99254.85;1699714;82;25830;-87
2021/01/26 06:36:11;;;;;;;20.95;13.22;;;;;;;0.31;84.80;99258.59;1700144;82;25847;-88
2021/01/26 06:38:45;;;;;;;24.82;15.58;;;;;;;0.30;84.79;99261.27;1701088;82;27012;-87
2021/01/26 06:41:29;;;;;;;24.95;15.50;;;;;;;0.29;84.77;99268.66;1701277;82;25880;-87
2021/01/26 06:44:27;;;;;;;22.10;14.78;;;;;;;0.31;84.75;99270.63;1675605;84;25902;-86
2021/01/26 06:47:05;;;;;;;25.97;14.78;;;;;;;0.31;84.68;99287.34;1635378;86;25905;-88
2021/01/26 06:49:55;;;;;;;32.73;16.05;;;;;;;0.30;84.49;99278.82;1635393;87;25906;-86
2021/01/26 06:52:44;;;;;;;25.30;12.78;;;;;;;0.30;84.43;99279.27;1635062;85;34397;-87
2021/01/26 06:55:33;;;;;;;23.70;14.38;;;;;;;0.27;84.06;99284.66;1635043;87;25847;-87
2021/01/26 06:58:22;;;;;;;23.60;14.35;;;;;;;0.14;84.03;99266.41;1635298;85;25955;-86
2021/01/26 07:01:05;;;;;;;24.35;14.23;;;;;;;0.29;84.31;99291.30;1634941;85;25856;-87
2021/01/26 07:04:03;;;;;;;23.32;15.43;;;;;;;0.31;84.10;99290.72;1655719;85;25782;-87
2021/01/26 07:06:57;;;;;;;24.12;14.35;;;;;;;0.32;83.84;99296.66;1645071;85;25789;-87
2021/01/26 07:10:14;;;;;;;20.50;13.03;;;;;;;0.26;83.52;99297.98;1635225;86;26536;-87
2021/01/26 07:13:03;;;;;;;28.60;17.20;;;;;;;0.26;83.67;99293.32;1635973;87;26050;-87
2021/01/26 07:16:03;;;;;;;29.67;18.55;;;;;;;0.26;83.88;99288.19;1635264;87;26615;-88
2021/01/26 07:18:41;;;;;;;36.35;21.62;;;;;;;0.25;84.10;99293.80;1635607;85;26518;-87
2021/01/26 07:21:24;;;;;;;38.83;20.08;;;;;;;0.28;84.14;99297.88;1636241;85;25763;-87
2021/01/26 07:24:14;;;;;;;32.23;16.75;;;;;;;0.27;84.12;99294.94;1652145;82;25895;-86
2021/01/26 07:27:06;;;;;;;34.03;18.82;;;;;;;0.25;84.08;99289.94;1703135;82;26072;-87
2021/01/26 07:29:44;;;;;;;30.02;17.48;;;;;;;0.26;84.19;99303.12;1704800;82;25747;-88
2021/01/26 07:32:31;;;;;;;34.48;18.17;;;;;;;0.21;84.17;99301.39;1671009;83;26460;-86
2021/01/26 07:35:15;;;;;;;27.20;16.02;;;;;;;0.21;84.15;99298.35;1703766;83;25951;-87
2021/01/26 07:38:14;;;;;;;30.82;16.55;;;;;;;0.20;83.89;99304.44;1705280;82;26485;-87
2021/01/26 07:40:51;;;;;;;27.73;16.75;;;;;;;0.18;83.90;99300.36;1722745;80;25794;-87
2021/01/26 07:43:43;;;;;;;25.62;15.28;;;;;;;0.20;83.88;99303.63;1751369;79;25309;-87
2021/01/26 07:46:18;;;;;;;22.37;14.28;;;;;;;0.20;83.43;99308.77;1753725;79;25766;-87
2021/01/26 07:48:56;;;;;;;22.05;13.15;;;;;;;0.19;83.48;99313.55;1762899;79;28162;-87
2021/01/26 07:51:28;;;;;;;26.17;16.15;;;;;;;0.21;83.27;99312.95;1750630;80;26580;-88
2021/01/26 07:54:14;;;;;;;27.32;15.95;;;;;;;0.21;83.41;99320.66;1755009;80;25351;-88
2021/01/26 07:56:42;;;;;;;26.90;15.78;;;;;;;0.23;83.28;99312.84;1754160;79;25313;-87
2021/01/26 07:59:25;;;;;;;23.98;13.08;;;;;;;0.20;83.16;99319.05;1751908;80;25695;-87
2021/01/26 08:01:57;;;;;;;27.00;14.78;;;;;;;0.19;83.25;99322.09;1751393;80;25811;-87
2021/01/26 08:04:25;;;;;;;25.25;14.05;;;;;;;0.18;83.25;99321.73;1733990;80;25669;-87
2021/01/26 08:06:55;;;;;;;29.07;15.08;;;;;;;0.19;83.43;99325.11;1754465;80;25722;-87
2021/01/26 08:09:34;;;;;;;;;;;;;;;0.19;83.52;99314.83;1753277;80;25860;-88
2021/01/26 08:12:11;;;;;;;27.05;16.67;;;;;;;0.23;83.67;99316.70;1753964;80;26684;-88
2021/01/26 08:14:50;;;;;;;26.97;14.05;;;;;;;0.24;83.71;99318.31;1752468;80;25849;-86
2021/01/26 08:17:33;;;;;;;33.00;17.35;;;;;;;0.24;83.68;99318.31;1747766;80;25970;-86
2021/01/26 08:20:11;;;;;;;29.48;16.35;;;;;;;0.23;83.80;99320.08;1749510;80;25752;-87
2021/01/26 08:22:41;;;;;;;28.90;15.80;;;;;;;0.25;83.89;99319.49;1750659;79;25707;-86
2021/01/26 08:25:29;;;;;;;29.27;16.30;;;;;;;0.26;83.90;99326.72;1753407;80;25980;-86
2021/01/26 08:28:03;;;;;;;26.33;14.55;;;;;;;0.28;84.00;99338.98;1752091;80;26116;-86
2021/01/26 08:30:50;;;;;;;34.98;17.02;;;;;;;0.28;84.03;99329.52;1751755;80;25826;-88
2021/01/26 08:33:20;;;;;;;29.92;16.90;;;;;;;0.29;84.13;99337.56;1755954;80;25807;-87
2021/01/26 08:36:26;;;;;;;26.33;16.17;;;;;;;0.30;84.21;99340.50;1756122;80;25870;-88
2021/01/26 08:39:16;;;;;;;34.45;18.10;;;;;;;0.31;84.27;99327.17;1754505;80;25701;-88
2021/01/26 08:41:51;;;;;;;28.60;17.82;;;;;;;0.31;84.25;99334.41;1750380;80;25794;-86
2021/01/26 08:44:29;;;;;;;34.48;18.48;;;;;;;0.33;84.26;99331.25;1748252;80;25472;-88
2021/01/26 08:46:56;;;;;;;32.95;17.92;;;;;;;0.35;84.29;99331.91;1755808;80;25818;-87
2021/01/26 08:49:33;;;;;;;33.78;19.27;;;;;;;0.39;84.29;99331.22;1755413;80;25829;-86
2021/01/26 08:52:25;;;;;;;42.73;20.85;;;;;;;0.43;84.18;99321.02;1756232;80;26451;-88
2021/01/26 08:54:53;;;;;;;47.70;20.02;;;;;;;0.48;84.18;99333.02;1757712;80;25699;-87
2021/01/26 08:57:31;;;;;;;36.23;18.62;;;;;;;0.52;83.94;99334.41;1757038;80;25876;-87
2021/01/26 09:00:16;;;;;;;30.80;18.12;;;;;;;0.55;83.74;99312.78;1751878;80;25819;-86
2021/01/26 09:02:46;;;;;;;35.23;19.95;;;;;;;0.56;83.72;99325.49;1740879;80;25724;-87
2021/01/26 09:05:30;;;;;;;36.58;20.12;;;;;;;0.58;83.46;99337.76;1728424;80;25625;-87
2021/01/26 09:08:05;;;;;;;30.37;16.87;;;;;;;0.57;83.47;99337.42;1681763;84;25818;-87
2021/01/26 09:10:47;;;;;;;31.90;18.07;;;;;;;0.59;83.19;99339.85;1683319;84;25870;-87
2021/01/26 09:13:30;;;;;;;30.52;16.00;;;;;;;0.61;83.11;99341.83;1685544;83;25874;-87
2021/01/26 09:16:10;;;;;;;29.05;16.93;;;;;;;0.64;83.04;99337.24;1689671;83;26394;-87
2021/01/26 09:18:38;;;;;;;27.25;16.25;;;;;;;0.69;82.95;99338.16;1657453;84;26051;-87
2021/01/26 09:21:10;;;;;;;33.33;16.20;;;;;;;0.71;82.44;99340.14;1688508;83;25928;-86
2021/01/26 09:23:39;;;;;;;25.17;13.55;;;;;;;0.74;82.63;99337.31;1665748;83;25854;-86
2021/01/26 09:26:18;;;;;;;23.95;12.90;;;;;;;0.76;81.90;99340.55;1674747;84;25814;-86
2021/01/26 09:28:50;;;;;;;29.32;14.30;;;;;;;0.77;81.85;99339.63;1677608;84;26026;-87
2021/01/26 09:31:21;;;;;;;28.50;14.90;;;;;;;0.81;81.74;99349.17;1639811;84;26479;-86
2021/01/26 09:33:48;;;;;;;24.00;13.88;;;;;;;0.83;81.87;99344.73;1638878;85;26764;-86
2021/01/26 09:36:20;;;;;;;26.20;14.98;;;;;;;0.84;81.69;99345.05;1637438;85;25773;-87
2021/01/26 09:38:49;;;;;;;29.77;16.50;;;;;;;0.89;81.91;99339.06;1637978;85;25907;-87
2021/01/26 09:41:24;;;;;;;24.77;14.40;;;;;;;0.90;81.72;99348.42;1651063;85;25810;-86
2021/01/26 09:43:58;;;;;;;33.48;16.80;;;;;;;0.92;81.63;99350.38;1672187;81;25481;-88
2021/01/26 09:46:34;;;;;;;30.50;16.12;;;;;;;0.95;81.87;99348.83;1690757;81;25861;-86
2021/01/26 09:49:24;;;;;;;34.80;18.70;;;;;;;0.95;81.62;99361.69;1709011;81;25511;-86
2021/01/26 09:52:08;;;;;;;31.00;16.25;;;;;;;0.97;81.88;99362.39;1702796;81;25779;-87
2021/01/26 09:54:39;;;;;;;30.75;17.70;;;;;;;1.01;81.76;99373.22;1723448;81;25812;-85
2021/01/26 09:57:09;;;;;;;27.22;16.37;;;;;;;1.02;81.89;99370.54;1729706;81;25696;-87
2021/01/26 09:59:38;;;;;;;25.97;15.20;;;;;;;1.06;81.37;99380.09;1720297;81;25697;-87
2021/01/26 10:02:10;;;;;;;25.23;14.28;;;;;;;1.04;81.00;99369.95;1715672;81;25769;-86
2021/01/26 10:04:40;;;;;;;25.48;14.47;;;;;;;1.05;80.92;99372.84;1730736;81;26555;-86
2021/01/26 10:07:10;;;;;;;21.97;14.45;;;;;;;1.07;80.67;99368.87;1738412;81;25713;-86
2021/01/26 10:09:36;;;;;;;24.10;14.53;;;;;;;1.09;80.32;99363.95;1716321;81;26672;-86
2021/01/26 10:12:38;;;;;;;21.25;12.07;;;;;;;1.10;80.05;99374.57;1721474;81;25873;-86
2021/01/26 10:15:30;;;;;;;23.83;14.90;;;;;;;1.12;79.80;99379.60;1724100;81;25891;-86
2021/01/26 10:18:16;;;;;;;21.85;12.58;;;;;;;1.15;80.22;99368.23;1723950;81;25732;-86
2021/01/26 10:20:53;;;;;;;25.35;15.00;;;;;;;1.19;79.62;99368.30;1727891;81;26329;-87
2021/01/26 10:23:41;;;;;;;21.62;14.35;;;;;;;1.21;80.13;99367.72;1724303;81;25329;-86
2021/01/26 10:26:15;;;;;;;22.02;13.58;;;;;;;1.24;79.84;99362.30;1726993;81;25809;-86
2021/01/26 10:29:04;;;;;;;20.88;14.20;;;;;;;1.24;79.80;99366.97;1724512;81;26367;-86
2021/01/26 10:31:55;;;;;;;20.88;13.68;;;;;;;1.26;79.88;99372.00;1730285;81;25811;-87
2021/01/26 10:34:36;;;;;;;21.60;13.72;;;;;;;1.31;79.70;99375.01;1731230;81;25912;-87
2021/01/26 10:37:27;;;;;;;24.80;15.30;;;;;;;1.31;79.51;99383.53;1730545;80;25764;-87
2021/01/26 10:40:21;;;;;;;23.90;13.48;;;;;;;1.26;79.09;99388.25;1732036;81;26419;-87
2021/01/26 10:43:21;;;;;;;25.60;15.80;;;;;;;1.21;78.76;99399.88;1725634;81;25793;-87
2021/01/26 10:45:52;;;;;;;24.40;13.70;;;;;;;1.16;79.16;99381.44;1707652;82;25377;-86
2021/01/26 10:48:33;;;;;;;23.87;15.38;;;;;;;1.13;78.99;99386.37;1722915;81;26609;-87
2021/01/26 10:51:26;;;;;;;27.20;17.15;;;;;;;1.10;79.34;99396.44;1723237;81;26047;-87
2021/01/26 10:53:52;;;;;;;29.23;17.85;;;;;;;1.10;79.60;99378.43;1723875;81;26297;-88
2021/01/26 10:56:18;;;;;;;30.57;18.80;;;;;;;1.13;79.99;99376.55;1731602;81;25893;-87
2021/01/26 10:58:46;;;;;;;25.20;15.50;;;;;;;1.11;79.93;99386.95;1725314;81;26443;-87
2021/01/26 11:01:21;;;;;;;23.80;15.63;;;;;;;1.13;80.00;99386.37;1726321;82;26323;-87
2021/01/26 11:03:49;;;;;;;23.85;14.45;;;;;;;1.12;79.77;99395.04;1730199;81;25903;-87
2021/01/26 11:06:15;;;;;;;25.17;16.60;;;;;;;1.11;79.80;99392.11;1730992;80;25785;-88
2021/01/26 11:08:43;;;;;;;24.75;15.58;;;;;;;1.13;80.00;99390.23;1739632;80;25765;-87
2021/01/26 11:11:13;;;;;;;31.42;18.37;;;;;;;1.10;79.91;99384.86;1737076;80;26468;-86
2021/01/26 11:13:39;;;;;;;26.52;17.40;;;;;;;1.11;80.05;99376.66;1740831;82;26149;-87
2021/01/26 11:16:05;;;;;;;29.07;17.37;;;;;;;1.13;80.32;99372.69;1741735;80;25468;-88
2021/01/26 11:18:32;;;;;;;27.05;16.42;;;;;;;1.17;80.09;99383.86;1739008;80;25638;-87
2021/01/26 11:20:59;;;;;;;20.48;12.58;;;;;;;1.16;79.94;99386.11;1741096;81;25865;-87
2021/01/26 11:23:27;;;;;;;24.98;14.98;;;;;;;1.17;80.12;99384.34;1721814;80;26341;-88
2021/01/26 11:25:53;;;;;;;23.07;14.73;;;;;;;1.16;79.93;99389.97;1705482;82;25742;-88
2021/01/26 11:28:20;;;;;;;24.37;13.85;;;;;;;1.17;80.09;99377.91;1736618;80;26367;-88
2021/01/26 11:30:46;;;;;;;26.20;15.40;;;;;;;1.20;80.29;99395.66;1754840;80;26075;-88
2021/01/26 11:33:13;;;;;;;21.33;14.25;;;;;;;1.19;79.90;99392.75;1741491;80;25758;-88
2021/01/26 11:35:40;;;;;;;28.12;14.90;;;;;;;1.16;79.73;99371.95;1734391;81;25646;-87
2021/01/26 11:38:06;;;;;;;24.18;14.45;;;;;;;1.13;80.02;99373.98;1733852;81;25323;-87
2021/01/26 11:40:33;;;;;;;25.43;15.38;;;;;;;1.16;79.49;99384.01;1717761;81;26854;-87
2021/01/26 11:42:59;;;;;;;25.20;16.23;;;;;;;1.16;79.81;99391.73;1707998;81;26434;-88
2021/01/26 11:45:31;;;;;;;22.45;14.63;;;;;;;1.17;79.96;99377.91;1732194;81;26553;-87
2021/01/26 11:47:58;;;;;;;25.95;16.20;;;;;;;1.20;79.81;99380.22;1733314;81;25741;-87
2021/01/26 11:50:25;;;;;;;23.12;15.68;;;;;;;1.20;79.91;99376.36;1732334;81;25553;-87
2021/01/26 11:52:52;;;;;;;25.20;16.10;;;;;;;1.21;79.92;99374.15;1735842;81;25716;-88
2021/01/26 11:55:23;;;;;;;27.67;18.20;;;;;;;1.22;79.77;99374.00;1741184;81;26370;-86
2021/01/26 11:57:51;;;;;;;28.85;17.37;;;;;;;1.23;79.90;99376.13;1745340;80;26312;-88
2021/01/26 12:00:22;;;;;;;26.50;16.10;;;;;;;1.30;80.06;99377.22;1729085;80;26320;-88
2021/01/26 12:02:49;;;;;;;26.20;16.65;;;;;;;1.33;79.70;99362.32;1716322;82;25824;-87
2021/01/26 12:05:19;;;;;;;27.62;15.93;;;;;;;1.36;79.56;99368.16;1718844;82;25904;-87
2021/01/26 12:07:45;;;;;;;25.90;15.87;;;;;;;1.35;79.49;99367.35;1716918;81;26449;-88
2021/01/26 12:10:13;;;;;;;25.48;16.93;;;;;;;1.38;79.25;99371.42;1737270;80;25996;-88
2021/01/26 12:12:39;;;;;;;31.33;17.02;;;;;;;1.37;79.35;99371.91;1741946;80;25284;-88